createdAt,value
2022-11-02T00:01:44.177Z,99244.41
2022-11-02T00:04:17.105Z,99251.16
2022-11-02T00:06:51.084Z,99257.88
2022-11-02T00:09:23.634Z,99252.13
2022-11-02T00:11:55.946Z,99265.78
2022-11-02T00:14:29.645Z,99259.94
2022-11-02T00:17:01.832Z,99270.84
2022-11-02T00:19:34.425Z,99268.13
2022-11-02T00:22:09.033Z,99271.44
2022-11-02T00:24:41.607Z,99270.19
2022-11-02T00:27:14.274Z,99263.59
2022-11-02T00:29:46.876Z,99279.41
2022-11-02T00:32:19.614Z,99277.25
2022-11-02T00:34:51.825Z,99270.31
2022-11-02T00:37:26.375Z,99276.03
2022-11-02T00:39:59.001Z,99280.03
2022-11-02T00:42:31.666Z,99283.00
2022-11-02T00:45:03.920Z,99283.41
2022-11-02T00:47:36.570Z,99282.56
2022-11-02T00:50:11.006Z,99284.47
2022-11-02T00:52:47.030Z,99285.31
2022-11-02T00:55:19.696Z,99288.50
2022-11-02T00:57:52.740Z,99288.41
2022-11-02T01:00:25.850Z,99292.94
2022-11-02T01:02:58.413Z,99290.59
2022-11-02T01:05:31.809Z,99287.00
2022-11-02T01:08:05.877Z,99287.94
2022-11-02T01:10:40.502Z,99293.22
2022-11-02T01:13:15.242Z,99296.00
2022-11-02T01:15:47.770Z,99302.09
2022-11-02T01:18:19.763Z,99304.38
2022-11-02T01:20:59.194Z,99303.25
2022-11-02T01:23:36.368Z,99303.31
2022-11-02T01:26:09.395Z,99300.75
2022-11-02T01:28:42.452Z,99310.88
2022-11-02T01:31:15.984Z,99317.53
2022-11-02T01:33:49.117Z,99326.63
2022-11-02T01:39:01.968Z,99320.75
2022-11-02T01:41:34.522Z,99326.78
2022-11-02T01:44:08.766Z,99334.69
2022-11-02T01:46:44.585Z,99329.31
2022-11-02T01:49:20.381Z,99337.69
2022-11-02T01:51:59.290Z,99342.13
2022-11-02T01:54:40.079Z,99340.09
2022-11-02T01:57:18.565Z,99343.41
2022-11-02T01:59:58.861Z,99336.38
2022-11-02T02:02:32.574Z,99341.56
2022-11-02T02:05:09.521Z,99340.91
2022-11-02T02:07:43.747Z,99338.66
2022-11-02T02:10:18.864Z,99349.47
2022-11-02T02:12:52.277Z,99348.88
2022-11-02T02:15:28.743Z,99352.75
2022-11-02T02:18:10.124Z,99361.06
2022-11-02T02:21:09.117Z,99373.53
2022-11-02T02:24:10.646Z,99368.25
2022-11-02T02:27:02.773Z,99366.34
2022-11-02T02:29:46.474Z,99374.50
2022-11-02T02:32:24.854Z,99377.88
2022-11-02T02:35:02.286Z,99376.88
2022-11-02T02:37:41.411Z,99381.22
2022-11-02T02:40:19.348Z,99386.16
2022-11-02T02:42:57.061Z,99384.81
2022-11-02T02:45:36.817Z,99388.03
2022-11-02T02:48:16.257Z,99390.34
2022-11-02T02:50:52.431Z,99394.06
2022-11-02T02:53:33.194Z,99395.34
2022-11-02T02:56:07.992Z,99402.81
2022-11-02T02:58:46.061Z,99399.94
2022-11-02T03:01:21.866Z,99395.84
2022-11-02T03:03:54.164Z,99402.94
2022-11-02T03:06:31.498Z,99409.53
2022-11-02T03:09:13.607Z,99404.97
2022-11-02T03:11:55.201Z,99417.59
2022-11-02T03:14:40.905Z,99417.00
2022-11-02T03:17:24.111Z,99418.56
2022-11-02T03:20:05.055Z,99420.38
2022-11-02T03:22:45.794Z,99421.44
2022-11-02T03:25:25.214Z,99419.38
2022-11-02T03:28:04.387Z,99419.38
2022-11-02T03:30:46.322Z,99419.88
2022-11-02T03:33:26.283Z,99418.69
2022-11-02T03:36:04.731Z,99422.75
2022-11-02T03:38:44.961Z,99433.50
2022-11-02T03:41:21.868Z,99423.66
2022-11-02T03:43:59.197Z,99421.16
2022-11-02T03:46:36.299Z,99425.84
2022-11-02T03:49:17.057Z,99427.28
2022-11-02T03:51:53.394Z,99425.91
2022-11-02T03:54:39.056Z,99432.97
2022-11-02T03:57:16.400Z,99427.97
2022-11-02T03:59:48.542Z,99427.69
2022-11-02T04:02:22.857Z,99430.91
2022-11-02T04:04:57.713Z,99431.50
2022-11-02T04:07:58.544Z,99435.06
2022-11-02T04:10:33.222Z,99427.63
2022-11-02T04:13:22.661Z,99426.44
2022-11-02T04:15:56.143Z,99431.47
2022-11-02T04:18:45.269Z,99429.34
2022-11-02T04:21:19.135Z,99433.19
2022-11-02T04:24:09.631Z,99429.09
2022-11-02T04:26:42.325Z,99431.94
2022-11-02T04:29:15.151Z,99430.47
2022-11-02T04:31:48.058Z,99426.03
2022-11-02T04:34:19.257Z,99422.25
2022-11-02T04:36:53.549Z,99421.38
2022-11-02T04:39:24.683Z,99419.06
2022-11-02T04:41:58.167Z,99419.91
2022-11-02T04:44:35.676Z,99414.47
2022-11-02T04:47:11.850Z,99408.13
2022-11-02T04:49:44.425Z,99402.94
2022-11-02T04:52:22.858Z,99406.03
2022-11-02T04:54:56.250Z,99409.31
2022-11-02T04:57:28.975Z,99402.03
2022-11-02T05:00:03.342Z,99398.16
2022-11-02T05:02:36.256Z,99390.66
2022-11-02T05:05:10.068Z,99385.72
2022-11-02T05:07:44.962Z,99380.75
2022-11-02T05:10:17.509Z,99377.31
2022-11-02T05:12:59.613Z,99377.25
2022-11-02T05:15:37.323Z,99374.56
2022-11-02T05:18:16.152Z,99362.44
2022-11-02T05:20:54.979Z,99360.56
2022-11-02T05:23:33.238Z,99361.06
2022-11-02T05:26:07.935Z,99355.59
2022-11-02T05:28:41.216Z,99353.09
2022-11-02T05:31:13.772Z,99343.88
2022-11-02T05:33:46.143Z,99343.19
2022-11-02T05:36:22.519Z,99342.19
2022-11-02T05:39:01.759Z,99332.72
2022-11-02T05:41:34.377Z,99323.63
2022-11-02T05:44:07.090Z,99323.78
2022-11-02T05:46:43.504Z,99317.63
2022-11-02T05:49:17.959Z,99306.47
2022-11-02T05:51:50.654Z,99310.38
2022-11-02T05:54:25.106Z,99305.78
2022-11-02T05:56:58.515Z,99297.25
2022-11-02T05:59:31.382Z,99291.66
2022-11-02T06:02:03.569Z,99282.06
2022-11-02T06:04:36.590Z,99274.91
2022-11-02T06:07:08.916Z,99260.19
2022-11-02T06:09:43.512Z,99258.41
2022-11-02T06:12:16.547Z,99251.28
2022-11-02T06:14:48.991Z,99250.06
2022-11-02T06:17:21.679Z,99246.00
2022-11-02T06:19:54.206Z,99234.59
2022-11-02T06:22:26.822Z,99227.22
2022-11-02T06:25:01.778Z,99227.19
2022-11-02T06:27:34.387Z,99224.03
2022-11-02T06:30:09.488Z,99216.22
2022-11-02T06:32:41.810Z,99206.09
2022-11-02T06:35:15.384Z,99206.34
2022-11-02T06:37:48.719Z,99204.00
2022-11-02T06:40:25.724Z,99207.25
2022-11-02T06:43:15.844Z,99195.44
2022-11-02T06:45:51.296Z,99185.38
2022-11-02T06:48:23.974Z,99182.50
2022-11-02T06:50:56.475Z,99175.84
2022-11-02T06:53:29.589Z,99171.13
2022-11-02T06:56:04.898Z,99168.66
2022-11-02T06:58:37.708Z,99163.22
2022-11-02T07:01:12.161Z,99166.94
2022-11-02T07:03:44.605Z,99158.06
2022-11-02T07:06:17.274Z,99151.53
2022-11-02T07:08:49.735Z,99150.91
2022-11-02T07:11:23.813Z,99146.25
2022-11-02T07:13:56.903Z,99135.66
2022-11-02T07:16:29.922Z,99135.72
2022-11-02T07:19:02.504Z,99133.41
2022-11-02T07:21:34.862Z,99133.19
2022-11-02T07:24:07.045Z,99124.28
2022-11-02T07:26:41.517Z,99117.28
2022-11-02T07:29:14.152Z,99108.38
2022-11-02T07:31:46.974Z,99102.13
2022-11-02T07:34:19.625Z,99095.13
2022-11-02T07:36:51.819Z,99095.41
2022-11-02T07:39:24.159Z,99089.47
2022-11-02T07:41:58.027Z,99089.84
2022-11-02T07:44:31.404Z,99077.66
2022-11-02T07:47:04.727Z,99077.59
2022-11-02T07:49:37.679Z,99078.19
2022-11-02T07:52:10.265Z,99069.66
2022-11-02T07:54:44.721Z,99078.50
2022-11-02T07:57:19.822Z,99065.81
2022-11-02T07:59:51.973Z,99062.47
2022-11-02T08:02:25.242Z,99055.53
2022-11-02T08:04:57.643Z,99049.09
2022-11-02T08:07:30.841Z,99049.03
2022-11-02T08:10:03.802Z,99049.56
2022-11-02T08:12:37.818Z,99040.22
2022-11-02T08:15:12.028Z,99038.59
2022-11-02T08:17:44.557Z,99026.72
2022-11-02T08:20:17.587Z,99029.78
2022-11-02T08:22:50.752Z,99027.59
2022-11-02T08:25:24.071Z,99025.72
2022-11-02T08:28:01.341Z,99025.03
2022-11-02T08:30:35.307Z,99019.66
2022-11-02T08:33:09.125Z,99018.31
2022-11-02T08:35:41.597Z,99013.53
2022-11-02T08:38:14.855Z,99015.09
2022-11-02T08:40:47.956Z,99001.88
2022-11-02T08:43:22.695Z,99001.44
2022-11-02T08:46:13.644Z,99004.91
2022-11-02T08:48:47.507Z,98996.84
2022-11-02T08:51:19.965Z,98990.44
2022-11-02T08:53:52.417Z,98988.72
2022-11-02T08:56:25.746Z,98979.47
2022-11-02T08:59:00.278Z,98974.59
2022-11-02T09:01:33.113Z,98969.72
2022-11-02T09:04:05.893Z,98968.81
2022-11-02T09:06:38.159Z,98970.47
2022-11-02T09:09:10.359Z,98967.56
2022-11-02T09:11:43.493Z,98965.75
2022-11-02T09:14:18.407Z,98952.44
2022-11-02T09:16:50.943Z,98950.16
2022-11-02T09:19:23.422Z,98952.31
2022-11-02T09:21:55.811Z,98948.50
2022-11-02T09:24:28.689Z,98956.16
2022-11-02T09:27:01.289Z,98956.81
2022-11-02T09:29:35.790Z,98954.16
2022-11-02T09:32:09.081Z,98951.16
2022-11-02T09:34:42.092Z,98953.44
2022-11-02T09:37:14.939Z,98946.00
2022-11-02T09:39:47.614Z,98947.16
2022-11-02T09:42:27.518Z,98942.97
2022-11-02T09:45:05.770Z,98947.59
2022-11-02T09:48:15.309Z,98937.63
2022-11-02T09:50:49.784Z,98938.16
2022-11-02T09:53:25.458Z,98942.63
2022-11-02T09:56:02.793Z,98944.47
2022-11-02T09:58:40.872Z,98942.63
2022-11-02T10:01:29.715Z,98936.47
2022-11-02T10:04:31.162Z,98935.13
2022-11-02T10:07:13.674Z,98944.09
2022-11-02T10:09:57.017Z,98944.63
2022-11-02T10:12:39.995Z,98946.44
2022-11-02T10:15:19.211Z,98940.28
2022-11-02T10:17:59.339Z,98944.47
2022-11-02T10:20:35.230Z,98940.44
2022-11-02T10:23:11.569Z,98940.78
2022-11-02T10:25:44.221Z,98947.09
2022-11-02T10:28:22.635Z,98946.81
2022-11-02T10:30:57.464Z,98943.47
2022-11-02T10:33:33.171Z,98944.00
2022-11-02T10:36:25.486Z,98945.47
2022-11-02T10:39:13.113Z,98948.78
2022-11-02T10:42:04.561Z,98944.09
2022-11-02T10:45:08.365Z,98944.44
2022-11-02T10:47:50.734Z,98941.25
2022-11-02T10:50:43.417Z,98949.94
2022-11-02T10:56:22.971Z,98943.44
2022-11-02T10:59:04.492Z,98943.94
2022-11-02T11:01:37.918Z,98938.63
2022-11-02T11:04:23.393Z,98944.09
2022-11-02T11:06:58.251Z,98946.13
2022-11-02T11:09:32.808Z,98949.44
2022-11-02T11:12:07.967Z,98947.44
2022-11-02T11:20:39.254Z,98955.13
2022-11-02T11:23:22.948Z,98951.09
2022-11-02T11:26:04.724Z,98956.75
2022-11-02T11:28:43.045Z,98958.06
2022-11-02T11:31:19.605Z,98964.38
2022-11-02T11:33:56.861Z,98960.22
2022-11-02T11:36:32.395Z,98969.69
2022-11-02T11:39:08.413Z,98968.50
2022-11-02T11:41:44.882Z,98978.69
2022-11-02T11:44:19.784Z,98971.66
2022-11-02T11:46:56.378Z,98973.97
2022-11-02T11:52:32.302Z,98973.97
2022-11-02T11:55:24.697Z,98979.63
2022-11-02T11:58:10.924Z,98974.91
2022-11-02T12:00:43.706Z,98986.22
2022-11-02T12:03:17.929Z,98985.22
2022-11-02T12:06:02.616Z,98988.84
2022-11-02T12:08:49.944Z,98991.31
2022-11-02T12:11:40.704Z,98998.63
2022-11-02T12:14:27.055Z,99011.88
2022-11-02T12:17:26.212Z,99001.69
2022-11-02T12:20:39.043Z,99011.59
2022-11-02T12:23:28.866Z,99006.03
2022-11-02T12:26:16.549Z,99005.28
2022-11-02T12:29:00.048Z,99015.72
2022-11-02T12:31:40.377Z,99014.94
2022-11-02T12:34:33.649Z,99013.44
2022-11-02T12:37:40.061Z,99013.44
2022-11-02T12:43:42.987Z,99025.25
2022-11-02T12:47:06.986Z,99020.78
2022-11-02T12:50:16.924Z,99028.22
2022-11-02T12:53:21.074Z,99029.34
2022-11-02T12:56:13.701Z,99024.34
2022-11-02T13:02:22.445Z,99036.94
2022-11-02T13:05:27.308Z,99042.91
2022-11-02T13:08:44.149Z,99042.00
2022-11-02T13:11:54.753Z,99036.09
2022-11-02T13:14:50.356Z,99048.00
2022-11-02T13:17:28.814Z,99042.59
2022-11-02T13:23:33.879Z,99042.53
2022-11-02T13:26:20.557Z,99046.38
2022-11-02T13:28:58.860Z,99051.75
2022-11-02T13:31:41.358Z,99051.09
2022-11-02T13:34:30.082Z,99055.88
2022-11-02T13:37:26.177Z,99055.53
2022-11-02T13:40:03.378Z,99052.75
2022-11-02T13:43:12.637Z,99066.03
2022-11-02T13:45:58.000Z,99060.28
2022-11-02T13:48:53.336Z,99060.63
2022-11-02T13:51:36.359Z,99056.31
2022-11-02T13:54:18.528Z,99069.94
2022-11-02T13:56:56.216Z,99073.06
2022-11-02T13:59:33.467Z,99068.19
2022-11-02T14:02:09.643Z,99074.66
2022-11-02T14:04:44.916Z,99072.97
2022-11-02T14:07:29.158Z,99072.44
2022-11-02T14:10:11.028Z,99072.59
2022-11-02T14:12:48.922Z,99074.03
2022-11-02T14:15:57.111Z,99078.56
2022-11-02T14:18:34.109Z,99084.19
2022-11-02T14:21:41.440Z,99079.56
2022-11-02T14:24:46.087Z,99077.19
2022-11-02T14:27:34.493Z,99086.38
2022-11-02T14:30:29.682Z,99090.47
2022-11-02T14:33:09.821Z,99089.69
2022-11-02T14:35:58.163Z,99095.63
2022-11-02T14:38:57.569Z,99088.94
2022-11-02T14:41:46.853Z,99096.91
2022-11-02T14:44:56.161Z,99099.25
2022-11-02T14:47:34.036Z,99103.75
2022-11-02T14:50:17.710Z,99095.97
2022-11-02T14:53:07.586Z,99101.00
2022-11-02T14:55:42.686Z,99105.06
2022-11-02T14:58:23.298Z,99109.41
2022-11-02T15:01:03.341Z,99106.31
2022-11-02T15:03:41.148Z,99112.78
2022-11-02T15:06:22.612Z,99108.56
2022-11-02T15:08:58.774Z,99113.84
2022-11-02T15:11:48.862Z,99112.47
2022-11-02T15:14:54.081Z,99109.13
2022-11-02T15:18:03.102Z,99115.41
2022-11-02T15:20:41.221Z,99120.69
2022-11-02T15:23:31.081Z,99120.28
2022-11-02T15:26:09.035Z,99109.00
2022-11-02T15:28:42.775Z,99117.22
2022-11-02T15:31:25.872Z,99117.38
2022-11-02T15:34:03.308Z,99110.25
2022-11-02T15:36:40.034Z,99113.31
2022-11-02T15:39:15.812Z,99106.63
2022-11-02T15:41:53.230Z,99112.47
2022-11-02T15:44:45.546Z,99111.91
2022-11-02T15:47:30.888Z,99118.22
2022-11-02T15:50:18.832Z,99123.66
2022-11-02T15:53:26.800Z,99117.09
2022-11-02T15:56:20.012Z,99117.81
2022-11-02T15:59:13.132Z,99122.53
2022-11-02T16:01:46.971Z,99119.75
2022-11-02T16:04:25.377Z,99119.75
2022-11-02T16:07:00.039Z,99122.00
2022-11-02T16:09:37.712Z,99128.41
2022-11-02T16:12:18.170Z,99131.47
2022-11-02T16:14:57.439Z,99137.59
2022-11-02T16:17:31.129Z,99137.31
2022-11-02T16:20:17.316Z,99136.47
2022-11-02T16:22:54.964Z,99130.06
2022-11-02T16:25:40.042Z,99141.06
2022-11-02T16:28:23.216Z,99136.47
2022-11-02T16:31:15.677Z,99144.56
2022-11-02T16:34:04.300Z,99140.66
2022-11-02T16:36:41.417Z,99134.53
2022-11-02T16:39:21.388Z,99142.34
2022-11-02T16:41:57.325Z,99138.97
2022-11-02T16:44:31.505Z,99138.56
2022-11-02T16:47:19.362Z,99142.28
2022-11-02T16:50:02.356Z,99139.78
2022-11-02T16:52:38.217Z,99138.13
2022-11-02T16:55:42.161Z,99137.00
2022-11-02T16:58:21.355Z,99138.94
2022-11-02T17:01:00.382Z,99135.31
2022-11-02T17:03:36.012Z,99140.31
2022-11-02T17:06:11.275Z,99135.72
2022-11-02T17:08:45.679Z,99139.75
2022-11-02T17:11:21.981Z,99141.97
2022-11-02T17:13:57.411Z,99146.19
2022-11-02T17:16:30.613Z,99142.69
2022-11-02T17:19:09.078Z,99148.09
2022-11-02T17:21:47.461Z,99141.69
2022-11-02T17:24:36.863Z,99153.66
2022-11-02T17:27:28.083Z,99146.31
2022-11-02T17:30:00.477Z,99153.13
2022-11-02T17:32:33.983Z,99152.56
2022-11-02T17:35:08.924Z,99149.50
2022-11-02T17:37:41.890Z,99149.50
2022-11-02T17:40:17.427Z,99146.13
2022-11-02T17:43:02.508Z,99148.38
2022-11-02T17:45:39.007Z,99150.88
2022-11-02T17:48:13.017Z,99155.31
2022-11-02T17:50:46.513Z,99152.53
2022-11-02T17:53:19.589Z,99141.94
2022-11-02T17:55:52.496Z,99148.88
2022-11-02T17:58:27.267Z,99146.78
2022-11-02T18:00:59.341Z,99144.13
2022-11-02T18:03:32.491Z,99139.97
2022-11-02T18:06:05.211Z,99137.31
2022-11-02T18:08:57.422Z,99129.94
2022-11-02T18:11:30.512Z,99126.72
2022-11-02T18:14:04.952Z,99134.50
2022-11-02T18:16:37.694Z,99130.06
2022-11-02T18:19:10.480Z,99120.44
2022-11-02T18:21:43.304Z,99120.22
2022-11-02T18:24:15.617Z,99123.72
2022-11-02T18:26:48.411Z,99123.66
2022-11-02T18:29:22.393Z,99123.13
2022-11-02T18:31:54.883Z,99126.78
2022-11-02T18:34:28.483Z,99122.88
2022-11-02T18:37:01.813Z,99124.69
2022-11-02T18:39:34.476Z,99126.78
2022-11-02T18:42:09.142Z,99119.81
2022-11-02T18:44:43.322Z,99123.13
2022-11-02T18:47:15.957Z,99124.13
2022-11-02T18:49:48.593Z,99121.91
2022-11-02T18:52:22.484Z,99128.97
2022-11-02T18:54:54.868Z,99129.84
2022-11-02T18:57:28.397Z,99135.13
2022-11-02T19:00:04.078Z,99127.91
2022-11-02T19:02:37.157Z,99128.97
2022-11-02T19:05:30.321Z,99128.28
2022-11-02T19:08:20.585Z,99123.66
2022-11-02T19:10:55.155Z,99128.72
2022-11-02T19:13:28.141Z,99122.63
2022-11-02T19:16:02.811Z,99122.63
2022-11-02T19:18:35.893Z,99118.75
2022-11-02T19:21:08.841Z,99130.75
2022-11-02T19:23:41.224Z,99125.28
2022-11-02T19:26:13.539Z,99125.03
2022-11-02T19:28:45.744Z,99127.28
2022-11-02T19:31:19.426Z,99121.84
2022-11-02T19:33:52.313Z,99122.16
2022-11-02T19:36:24.399Z,99124.13
2022-11-02T19:38:57.291Z,99122.88
2022-11-02T19:41:30.054Z,99125.41
2022-11-02T19:44:02.632Z,99116.94
2022-11-02T19:46:36.798Z,99117.94
2022-11-02T19:49:09.523Z,99128.25
2022-11-02T19:51:41.924Z,99133.28
2022-11-02T19:54:14.227Z,99123.00
2022-11-02T19:56:48.096Z,99120.47
2022-11-02T19:59:20.273Z,99118.25
2022-11-02T20:01:54.807Z,99114.56
2022-11-02T20:04:27.971Z,99110.41
2022-11-02T20:07:00.559Z,99104.41
2022-11-02T20:09:33.090Z,99104.53
2022-11-02T20:12:06.357Z,99104.84
2022-11-02T20:14:39.882Z,99094.47
2022-11-02T20:20:07.356Z,99099.41
2022-11-02T20:22:40.399Z,99094.53
2022-11-02T20:25:13.721Z,99094.78
2022-11-02T20:27:46.655Z,99090.03
2022-11-02T20:30:20.913Z,99081.97
2022-11-02T20:32:54.733Z,99082.41
2022-11-02T20:35:28.036Z,99081.25
2022-11-02T20:38:00.156Z,99076.59
2022-11-02T20:40:36.384Z,99080.31
2022-11-02T20:43:12.847Z,99080.16
2022-11-02T20:45:45.367Z,99084.53
2022-11-02T20:48:18.890Z,99076.75
2022-11-02T20:50:51.860Z,99061.72
2022-11-02T20:53:24.058Z,99066.16
2022-11-02T20:55:56.165Z,99060.31
2022-11-02T20:58:28.988Z,99055.75
2022-11-02T21:01:01.973Z,99049.03
2022-11-02T21:03:36.236Z,99056.53
2022-11-02T21:06:09.571Z,99052.13
2022-11-02T21:08:42.309Z,99059.09
2022-11-02T21:11:37.884Z,99064.84
2022-11-02T21:14:10.875Z,99063.34
2022-11-02T21:16:43.416Z,99063.47
2022-11-02T21:19:17.106Z,99062.34
2022-11-02T21:21:51.826Z,99061.47
2022-11-02T21:24:27.453Z,99063.16
2022-11-02T21:26:59.441Z,99067.00
2022-11-02T21:29:31.357Z,99061.41
2022-11-02T21:32:03.508Z,99054.63
2022-11-02T21:34:37.370Z,99049.59
2022-11-02T21:37:10.537Z,99056.03
2022-11-02T21:39:42.477Z,99057.84
2022-11-02T21:42:15.160Z,99061.56
2022-11-02T21:44:47.842Z,99050.44
2022-11-02T21:47:20.604Z,99054.44
2022-11-02T21:49:54.502Z,99052.19
2022-11-02T21:52:27.373Z,99046.50
2022-11-02T21:54:59.583Z,99039.28
2022-11-02T21:57:32.304Z,99045.16
2022-11-02T22:00:04.465Z,99035.28
2022-11-02T22:02:43.253Z,99033.09
2022-11-02T22:05:37.792Z,99034.59
2022-11-02T22:08:26.930Z,99030.41
2022-11-02T22:11:01.296Z,99034.28
2022-11-02T22:13:37.117Z,99037.38
2022-11-02T22:16:18.431Z,99030.03
2022-11-02T22:18:52.173Z,99034.72
2022-11-02T22:21:26.946Z,99050.13
2022-11-02T22:23:59.687Z,99044.78
2022-11-02T22:26:33.542Z,99044.78
2022-11-02T22:29:05.963Z,99041.19
2022-11-02T22:31:40.631Z,99041.06
2022-11-02T22:34:14.218Z,99044.72
2022-11-02T22:36:49.401Z,99046.53
2022-11-02T22:39:20.366Z,99054.06
2022-11-02T22:41:52.609Z,99046.47
2022-11-02T22:44:24.771Z,99056.50
2022-11-02T22:46:57.146Z,99058.84
2022-11-02T22:49:29.665Z,99060.63
2022-11-02T22:52:03.490Z,99066.91
2022-11-02T22:54:36.323Z,99066.91
2022-11-02T22:57:08.891Z,99071.91
2022-11-02T22:59:41.247Z,99075.34
2022-11-02T23:02:13.946Z,99068.63
2022-11-02T23:04:46.321Z,99073.91
2022-11-02T23:07:20.189Z,99078.72
2022-11-02T23:09:52.414Z,99077.75
2022-11-02T23:12:23.900Z,99082.34
2022-11-02T23:14:56.913Z,99086.78
2022-11-02T23:17:29.590Z,99089.19
2022-11-02T23:20:00.543Z,99083.38
2022-11-02T23:22:50.929Z,99083.16
2022-11-02T23:25:22.992Z,99084.41
2022-11-02T23:28:16.437Z,99089.06
2022-11-02T23:31:05.421Z,99091.38
2022-11-02T23:33:39.417Z,99093.81
2022-11-02T23:36:14.118Z,99098.94
2022-11-02T23:39:06.267Z,99098.41
2022-11-02T23:41:40.165Z,99111.25
2022-11-02T23:44:16.169Z,99110.66
2022-11-02T23:46:50.042Z,99114.25
2022-11-02T23:49:22.847Z,99118.38
2022-11-02T23:52:14.360Z,99117.84
2022-11-02T23:55:05.383Z,99126.03
2022-11-02T23:57:38.043Z,99133.94
